Fort Fisher Air Force Statio, North Carolina
Current Conditions -  °F | °C
As of 12:55 AM on Wednesday 22 Oct 2014 (Local Time) from KSUT Reporting Station
Scattered Clouds Scattered Clouds  
Wind Chill: 62°   Ceiling: Unl
Heat Index: 62°   Visibility: 10mi
Dew Point: 51°   Wind: 9mph
Humidity: 67%   Direction: 340°NNW
Pressure: 29.89"   Gusts: NA
Location:  33.9736°N, 77.9221°W
Report Text: KSUT 220455Z AUTO 34008KT 10SM SCT070 17/11 A2989 RMK AO2 T01660105
Loading
Personal Weather Stations






























Interactive Weather Map
Tropical Storm Tracking
New forecast layout! Learn more

10-Day Weather Forecast

Advertisements
Track Severe Weather on mobile